Station Historical Data
Daily Summary for November 6, 2017 Units:  English    Metric   Both
« Previous Day
Next Day »
Daily Weekly Monthly Yearly Custom
  High: Low: Average:
Temperature: 76.3 °F 59.1 °F 65.7 °F
Dew Point: 67.2 °F 57.4 °F 62.3 °F
Humidity: 95% 71% 89%
Wind Speed: 4.6mph 0.0mph 0.2mph
Wind Gust: 4.6mph - -
Wind- - WSW
Pressure: 30.12 in 30.04 in -
Precipitation: 0.00 in    
Historical Graphs
 
 
Tabular Data for November 6, 2017
Time Temperature Dew Point Pressure Wind Wind Speed Wind Gust Humidity Rainfall Rate (Hourly) Conditions
00:02 62.5 °F 60.7 °F 30.09 in Calm     94% 0.00 in CLR
00:07 62.6 °F 60.8 °F 30.09 in Calm     94% 0.00 in CLR
00:09 62.6 °F 60.8 °F 30.09 in Calm     94% 0.00 in CLR
00:14 62.5 °F 60.7 °F 30.09 in Calm     94% 0.00 in CLR
00:19 62.6 °F 60.8 °F 30.09 in Calm     94% 0.00 in CLR
00:24 62.5 °F 60.7 °F 30.09 in Calm     94% 0.00 in CLR
00:30 62.4 °F 60.7 °F 30.09 in Calm     94% 0.00 in CLR
00:35 62.3 °F 60.6 °F 30.09 in Calm     94% 0.00 in CLR
00:40 62.2 °F 60.5 °F 30.09 in Calm     94% 0.00 in CLR
00:45 62.2 °F 60.5 °F 30.09 in Calm     94% 0.00 in CLR
00:50 62.0 °F 60.3 °F 30.09 in Calm     94% 0.00 in CLR
00:55 61.9 °F 60.2 °F 30.09 in Calm     94% 0.00 in CLR
01:00 61.8 °F 60.1 °F 30.09 in Calm     94% 0.00 in CLR
01:05 61.7 °F 60.0 °F 30.09 in Calm     94% 0.00 in CLR
01:10 61.7 °F 60.0 °F 30.09 in Calm     94% 0.00 in CLR
01:15 61.6 °F 59.9 °F 30.09 in Calm     94% 0.00 in CLR
01:20 61.7 °F 60.0 °F 30.10 in WNW 1.2 mph 1.2 mph 94% 0.00 in CLR
01:25 62.0 °F 60.3 °F 30.10 in Calm     94% 0.00 in CLR
01:30 62.1 °F 60.4 °F 30.10 in Calm     94% 0.00 in CLR
01:35 62.0 °F 60.3 °F 30.10 in Calm     94% 0.00 in CLR
01:40 62.2 °F 60.5 °F 30.10 in Calm     94% 0.00 in CLR
01:46 62.4 °F 60.7 °F 30.10 in Calm     94% 0.00 in CLR
01:51 62.5 °F 60.7 °F 30.10 in Calm     94% 0.00 in CLR
01:56 62.4 °F 60.7 °F 30.10 in Calm     94% 0.00 in CLR
02:01 62.3 °F 60.6 °F 30.10 in Calm     94% 0.00 in FEW
02:06 62.2 °F 60.5 °F 30.11 in Calm     94% 0.00 in FEW
02:11 62.2 °F 60.5 °F 30.12 in Calm     94% 0.00 in FEW
02:16 62.3 °F 60.6 °F 30.11 in Calm     94% 0.00 in FEW
02:18 62.3 °F 60.6 °F 30.11 in Calm     94% 0.00 in FEW
02:23 62.2 °F 60.5 °F 30.12 in Calm     94% 0.00 in FEW
02:28 62.0 °F 60.3 °F 30.12 in Calm     94% 0.00 in FEW
02:33 62.0 °F 60.3 °F 30.12 in Calm     94% 0.00 in FEW
02:38 62.0 °F 60.3 °F 30.12 in Calm     94% 0.00 in FEW
02:43 61.9 °F 60.2 °F 30.11 in Calm     94% 0.00 in FEW
02:48 61.8 °F 60.1 °F 30.11 in Calm     94% 0.00 in FEW
02:53 61.5 °F 59.8 °F 30.11 in Calm     94% 0.00 in FEW
02:58 61.5 °F 59.8 °F 30.11 in Calm     94% 0.00 in FEW
03:03 61.4 °F 59.7 °F 30.11 in Calm     94% 0.00 in CLR
03:08 61.3 °F 59.6 °F 30.10 in Calm     94% 0.00 in CLR
03:13 61.2 °F 59.5 °F 30.10 in Calm     94% 0.00 in CLR
03:18 61.1 °F 59.4 °F 30.10 in Calm     94% 0.00 in CLR
03:23 61.4 °F 59.7 °F 30.09 in Calm     94% 0.00 in CLR
03:28 61.6 °F 59.9 °F 30.09 in Calm     94% 0.00 in CLR
03:33 61.6 °F 59.9 °F 30.09 in Calm     94% 0.00 in CLR
03:38 61.5 °F 59.8 °F 30.09 in Calm     94% 0.00 in CLR
03:43 61.5 °F 59.8 °F 30.10 in Calm     94% 0.00 in CLR
03:49 61.5 °F 59.8 °F 30.09 in Calm     94% 0.00 in CLR
03:50 61.4 °F 59.7 °F 30.09 in Calm     94% 0.00 in CLR
03:55 61.3 °F 59.6 °F 30.09 in Calm     94% 0.00 in CLR
04:00 61.1 °F 59.4 °F 30.09 in Calm     94% 0.00 in CLR
04:05 61.0 °F 59.3 °F 30.09 in Calm     94% 0.00 in CLR
04:11 60.8 °F 59.1 °F 30.09 in Calm     94% 0.00 in CLR
04:16 60.6 °F 58.9 °F 30.09 in Calm     94% 0.00 in CLR
04:21 60.5 °F 58.8 °F 30.09 in Calm     94% 0.00 in CLR
04:26 60.4 °F 58.7 °F 30.09 in Calm     94% 0.00 in CLR
04:27 60.3 °F 58.6 °F 30.08 in Calm     94% 0.00 in CLR
04:32 60.2 °F 58.5 °F 30.08 in Calm     94% 0.00 in CLR
04:37 60.4 °F 58.7 °F 30.08 in Calm     94% 0.00 in CLR
04:42 60.4 °F 58.7 °F 30.08 in Calm     94% 0.00 in CLR
04:47 60.4 °F 58.7 °F 30.08 in Calm     94% 0.00 in CLR
04:52 60.3 °F 58.6 °F 30.08 in Calm     94% 0.00 in CLR
04:57 60.3 °F 58.6 °F 30.09 in Calm     94% 0.00 in CLR
05:02 60.3 °F 58.6 °F 30.09 in Calm     94% 0.00 in CLR
05:07 60.2 °F 58.5 °F 30.09 in Calm     94% 0.00 in CLR
05:12 60.0 °F 58.3 °F 30.09 in Calm     94% 0.00 in CLR
05:17 59.9 °F 58.2 °F 30.09 in Calm     94% 0.00 in CLR
05:22 59.8 °F 58.1 °F 30.09 in Calm     94% 0.00 in CLR
05:27 59.7 °F 58.0 °F 30.09 in Calm     94% 0.00 in CLR
05:37 59.3 °F 57.6 °F 30.09 in Calm     94% 0.00 in CLR
05:42 59.2 °F 57.5 °F 30.09 in Calm     94% 0.00 in CLR
05:47 59.1 °F 57.4 °F 30.09 in Calm     94% 0.00 in CLR
05:53 59.1 °F 57.4 °F 30.09 in Calm     94% 0.00 in CLR
05:58 59.3 °F 57.6 °F 30.09 in Calm     94% 0.00 in CLR
06:03 59.3 °F 57.6 °F 30.09 in Calm     94% 0.00 in CLR
06:08 59.4 °F 57.7 °F 30.09 in Calm     94% 0.00 in CLR
06:13 59.6 °F 57.9 °F 30.09 in Calm     94% 0.00 in CLR
06:18 59.6 °F 57.9 °F 30.09 in Calm     94% 0.00 in CLR
06:23 59.7 °F 58.0 °F 30.10 in Calm     94% 0.00 in CLR
06:28 59.7 °F 58.0 °F 30.10 in Calm     94% 0.00 in CLR
06:33 59.7 °F 58.0 °F 30.10 in Calm     94% 0.00 in CLR
06:38 59.7 °F 58.0 °F 30.10 in Calm     94% 0.00 in CLR
06:43 59.7 °F 58.0 °F 30.10 in Calm     94% 0.00 in CLR
06:48 59.6 °F 57.9 °F 30.10 in Calm     94% 0.00 in CLR
06:53 59.5 °F 57.8 °F 30.11 in Calm     94% 0.00 in CLR
06:58 59.4 °F 57.7 °F 30.11 in Calm     94% 0.00 in CLR
07:03 59.3 °F 57.6 °F 30.11 in Calm     94% 0.00 in BKN
07:08 59.2 °F 57.5 °F 30.11 in Calm     94% 0.00 in BKN
07:13 59.2 °F 57.5 °F 30.11 in Calm     94% 0.00 in BKN
07:18 59.1 °F 57.4 °F 30.11 in Calm     94% 0.00 in BKN
07:23 59.1 °F 57.4 °F 30.11 in Calm     94% 0.00 in BKN
07:28 59.1 °F 57.4 °F 30.10 in Calm     94% 0.00 in BKN
07:33 59.1 °F 57.4 °F 30.10 in Calm     94% 0.00 in BKN
07:38 59.2 °F 57.5 °F 30.10 in Calm     94% 0.00 in BKN
07:43 59.4 °F 57.7 °F 30.10 in Calm     94% 0.00 in BKN
07:48 59.5 °F 57.8 °F 30.10 in Calm     94% 0.00 in BKN
07:53 59.5 °F 57.8 °F 30.10 in Calm     94% 0.00 in BKN
07:59 59.5 °F 57.8 °F 30.10 in Calm     94% 0.00 in BKN
08:04 59.7 °F 58.0 °F 30.10 in Calm     94% 0.00 in BKN
08:09 59.9 °F 58.2 °F 30.09 in Calm     94% 0.00 in BKN
08:14 60.2 °F 58.5 °F 30.10 in Calm     94% 0.00 in BKN
08:19 60.4 °F 59.0 °F 30.10 in Calm     95% 0.00 in BKN
08:24 60.7 °F 59.3 °F 30.10 in Calm     95% 0.00 in BKN
08:29 61.0 °F 59.6 °F 30.10 in Calm     95% 0.00 in BKN
08:34 61.2 °F 59.8 °F 30.10 in Calm     95% 0.00 in BKN
08:39 61.5 °F 60.1 °F 30.11 in Calm     95% 0.00 in BKN
08:44 61.8 °F 60.4 °F 30.11 in Calm     95% 0.00 in BKN
08:49 62.1 °F 60.7 °F 30.12 in Calm     95% 0.00 in BKN
08:54 62.6 °F 61.1 °F 30.11 in Calm     95% 0.00 in BKN
08:59 62.9 °F 61.4 °F 30.11 in Calm     95% 0.00 in BKN
09:04 63.3 °F 61.8 °F 30.11 in Calm     95% 0.00 in SCT
09:09 64.1 °F 62.6 °F 30.11 in Calm     95% 0.00 in SCT
09:14 64.2 °F 62.7 °F 30.11 in WNW 1.2 mph   95% 0.00 in SCT
09:19 64.3 °F 62.8 °F 30.11 in Calm     95% 0.00 in SCT
09:24 64.6 °F 63.1 °F 30.11 in Calm     95% 0.00 in SCT
09:29 64.9 °F 63.4 °F 30.11 in Calm     95% 0.00 in SCT
09:34 65.1 °F 63.6 °F 30.11 in Calm     95% 0.00 in SCT
09:39 65.5 °F 64.0 °F 30.11 in Calm     95% 0.00 in SCT
09:44 66.1 °F 64.6 °F 30.11 in WNW 1.2 mph 1.2 mph 95% 0.00 in SCT
09:49 67.2 °F 65.4 °F 30.10 in Calm     94% 0.00 in SCT
09:55 68.8 °F 65.7 °F 30.11 in Calm     90% 0.00 in SCT
09:58 69.4 °F 64.4 °F 30.11 in NNW 1.2 mph   84% 0.00 in SCT
10:03 70.2 °F 64.4 °F 30.11 in Calm     82% 0.00 in SCT
10:08 70.9 °F 64.8 °F 30.11 in NNE 1.2 mph   81% 0.00 in SCT
10:18 71.0 °F 63.8 °F 30.11 in Calm     78% 0.00 in SCT
10:23 70.9 °F 63.7 °F 30.12 in Calm     78% 0.00 in SCT
10:28 70.9 °F 64.1 °F 30.12 in WNW 1.0 mph 1.0 mph 79% 0.00 in SCT
10:33 70.6 °F 64.1 °F 30.12 in Calm     80% 0.00 in SCT
10:38 70.4 °F 64.3 °F 30.12 in Calm     81% 0.00 in SCT
10:43 70.3 °F 64.2 °F 30.12 in Calm     81% 0.00 in SCT
10:48 70.3 °F 63.5 °F 30.11 in WNW 1.2 mph 1.2 mph 79% 0.00 in SCT
10:54 70.6 °F 64.1 °F 30.11 in WNW 2.3 mph   80% 0.00 in SCT
10:59 71.1 °F 64.3 °F 30.10 in Calm     79% 0.00 in SCT
11:04 71.6 °F 65.1 °F 30.10 in Calm     80% 0.00 in SCT
11:09 72.1 °F 64.9 °F 30.10 in ESE 1.2 mph   78% 0.00 in SCT
11:14 72.5 °F 64.9 °F 30.10 in WNW 1.2 mph 1.2 mph 77% 0.00 in BKN
11:19 72.9 °F 64.5 °F 30.10 in Calm     75% 0.00 in BKN
11:24 73.1 °F 64.7 °F 30.10 in West 1.2 mph 1.2 mph 75% 0.00 in BKN
11:29 73.4 °F 64.2 °F 30.10 in East 1.2 mph   73% 0.00 in BKN
11:34 73.4 °F 65.0 °F 30.10 in NW 1.2 mph   75% 0.00 in BKN
11:39 73.3 °F 65.3 °F 30.10 in NW 1.0 mph   76% 0.00 in BKN
11:44 73.2 °F 65.2 °F 30.10 in NNE 2.3 mph 2.3 mph 76% 0.00 in BKN
11:49 73.5 °F 65.8 °F 30.10 in SW 2.3 mph 2.3 mph 77% 0.00 in BKN
11:54 73.9 °F 65.5 °F 30.10 in Calm     75% 0.00 in BKN
11:59 74.1 °F 66.0 °F 30.09 in West 1.0 mph 1.0 mph 76% 0.00 in BKN
12:04 74.5 °F 66.4 °F 30.09 in WNW 2.3 mph 2.3 mph 76% 0.00 in BKN
12:09 74.9 °F 66.4 °F 30.08 in West 2.3 mph 2.3 mph 75% 0.00 in BKN
12:14 75.2 °F 65.9 °F 30.08 in NNW 4.6 mph 4.6 mph 73% 0.00 in BKN
12:24 75.5 °F 66.2 °F 30.07 in NNE 1.2 mph 1.2 mph 73% 0.00 in BKN
12:29 75.9 °F 66.2 °F 30.07 in NNW 1.2 mph   72% 0.00 in BKN
12:35 76.2 °F 66.9 °F 30.07 in Calm     73% 0.00 in BKN
12:40 76.3 °F 66.2 °F 30.07 in Calm   1.0 mph 71% 0.00 in BKN
12:45 76.2 °F 66.5 °F 30.07 in Calm   1.0 mph 72% 0.00 in BKN
12:50 75.9 °F 65.8 °F 30.07 in Calm   1.0 mph 71% 0.00 in BKN
12:55 75.5 °F 66.2 °F 30.06 in Calm   2.0 mph 73% 0.00 in BKN
13:00 75.4 °F 66.1 °F 30.06 in Calm     73% 0.00 in BKN
13:05 75.3 °F 66.4 °F 30.06 in Calm   1.0 mph 74% 0.00 in BKN
13:10 75.1 °F 66.2 °F 30.06 in WNW 1.0 mph 3.0 mph 74% 0.00 in BKN
13:15 75.0 °F 66.2 °F 30.06 in Calm   2.0 mph 74% 0.00 in BKN
13:20 74.8 °F 66.3 °F 30.06 in Calm   1.0 mph 75% 0.00 in BKN
13:25 74.4 °F 66.0 °F 30.06 in Calm   1.0 mph 75% 0.00 in BKN
13:30 74.2 °F 66.1 °F 30.06 in Calm   1.0 mph 76% 0.00 in BKN
13:35 74.1 °F 66.0 °F 30.05 in Calm   1.0 mph 76% 0.00 in BKN
13:40 74.3 °F 66.6 °F 30.05 in WNW 1.2 mph   77% 0.00 in BKN
13:45 74.5 °F 66.4 °F 30.05 in Calm   2.0 mph 76% 0.00 in BKN
13:50 74.6 °F 66.9 °F 30.05 in Calm   1.0 mph 77% 0.00 in BKN
13:55 74.5 °F 66.4 °F 30.05 in Calm   2.0 mph 76% 0.00 in BKN
14:00 74.5 °F 66.8 °F 30.05 in Calm   1.0 mph 77% 0.00 in BKN
14:05 74.3 °F 67.0 °F 30.05 in Calm     78% 0.00 in BKN
14:10 74.2 °F 67.2 °F 30.05 in SW 1.0 mph 3.0 mph 79% 0.00 in BKN
14:15 73.7 °F 67.1 °F 30.04 in Calm     80% 0.00 in BKN
14:20 73.4 °F 66.9 °F 30.05 in Calm     80% 0.00 in BKN
14:25 73.0 °F 66.8 °F 30.05 in West 1.2 mph 1.2 mph 81% 0.00 in BKN
14:30 72.6 °F 66.8 °F 30.05 in SSW 3.1 mph 3.1 mph 82% 0.00 in BKN
14:35 72.4 °F 66.6 °F 30.05 in WSW 1.2 mph   82% 0.00 in BKN
14:40 72.2 °F 66.7 °F 30.05 in WSW 1.2 mph 1.2 mph 83% 0.00 in BKN
14:45 72.5 °F 67.0 °F 30.05 in WNW 1.2 mph 1.2 mph 83% 0.00 in -RA
14:50 72.7 °F 66.9 °F 30.05 in Calm     82% 0.00 in -RA
14:55 72.9 °F 66.7 °F 30.05 in NW 1.2 mph 1.2 mph 81% 0.00 in -RA
15:00 73.0 °F 66.5 °F 30.05 in West 2.0 mph 2.0 mph 80% 0.00 in -RA
15:05 73.0 °F 66.5 °F 30.05 in Calm     80% 0.00 in BKN
15:10 73.1 °F 66.9 °F 30.05 in WSW 1.2 mph 1.2 mph 81% 0.00 in BKN
15:15 73.0 °F 66.5 °F 30.05 in SSW 1.2 mph 1.2 mph 80% 0.00 in BKN
15:20 72.9 °F 66.0 °F 30.05 in Calm     79% 0.00 in BKN
15:25 72.8 °F 66.6 °F 30.05 in SSE 1.0 mph 1.0 mph 81% 0.00 in BKN
15:31 72.4 °F 66.6 °F 30.05 in Calm     82% 0.00 in BKN
15:36 72.2 °F 66.4 °F 30.05 in ESE 1.0 mph   82% 0.00 in BKN
15:41 72.0 °F 66.6 °F 30.06 in ESE 1.0 mph   83% 0.00 in BKN
15:46 71.8 °F 66.4 °F 30.05 in Calm     83% 0.00 in BKN
15:51 71.6 °F 66.2 °F 30.05 in Calm     83% 0.00 in BKN
15:56 71.5 °F 66.4 °F 30.05 in Calm     84% 0.00 in BKN
16:01 71.3 °F 66.2 °F 30.05 in Calm     84% 0.00 in BKN
16:06 71.1 °F 66.0 °F 30.05 in West 1.2 mph 1.2 mph 84% 0.00 in BKN
16:11 70.9 °F 66.2 °F 30.06 in WNW 1.2 mph 1.2 mph 85% 0.00 in BKN
16:16 70.8 °F 66.1 °F 30.06 in Calm     85% 0.00 in BKN
16:21 70.7 °F 66.0 °F 30.05 in Calm     85% 0.00 in BKN
16:26 70.6 °F 65.9 °F 30.05 in Calm     85% 0.00 in BKN
16:31 70.5 °F 65.8 °F 30.05 in Calm     85% 0.00 in BKN
16:36 70.5 °F 65.8 °F 30.06 in Calm     85% 0.00 in BKN
16:41 70.5 °F 65.8 °F 30.06 in Calm     85% 0.00 in BKN
16:46 70.4 °F 65.7 °F 30.06 in Calm     85% 0.00 in BKN
16:51 70.3 °F 65.6 °F 30.06 in Calm     85% 0.00 in BKN
16:56 70.1 °F 65.4 °F 30.06 in Calm     85% 0.00 in BKN
17:01 70.1 °F 65.4 °F 30.06 in Calm     85% 0.00 in OVC
17:06 70.0 °F 65.3 °F 30.07 in Calm     85% 0.00 in OVC
17:11 69.9 °F 65.5 °F 30.07 in Calm     86% 0.00 in OVC
17:17 69.7 °F 65.3 °F 30.06 in Calm     86% 0.00 in OVC
17:22 69.6 °F 65.2 °F 30.06 in Calm     86% 0.00 in OVC
17:27 69.5 °F 65.1 °F 30.07 in Calm     86% 0.00 in OVC
17:32 69.4 °F 65.0 °F 30.07 in Calm     86% 0.00 in OVC
17:37 69.2 °F 64.8 °F 30.06 in Calm     86% 0.00 in OVC
17:42 69.0 °F 64.6 °F 30.06 in Calm     86% 0.00 in OVC
17:47 68.7 °F 64.7 °F 30.06 in Calm     87% 0.00 in OVC
17:52 68.4 °F 64.4 °F 30.06 in Calm     87% 0.00 in OVC
18:02 67.9 °F 64.2 °F 30.07 in Calm     88% 0.00 in BKN
18:07 67.5 °F 64.1 °F 30.07 in Calm     89% 0.00 in BKN
18:12 67.3 °F 63.9 °F 30.07 in Calm     89% 0.00 in BKN
18:17 67.1 °F 63.7 °F 30.07 in Calm     89% 0.00 in BKN
18:22 66.8 °F 63.8 °F 30.07 in Calm     90% 0.00 in BKN
18:27 66.6 °F 63.6 °F 30.08 in Calm     90% 0.00 in BKN
18:32 66.4 °F 63.4 °F 30.08 in Calm     90% 0.00 in BKN
18:37 66.2 °F 63.2 °F 30.08 in Calm     90% 0.00 in BKN
18:42 66.1 °F 63.1 °F 30.08 in Calm     90% 0.00 in BKN
18:48 66.0 °F 63.3 °F 30.08 in Calm     91% 0.00 in BKN
18:53 65.9 °F 63.2 °F 30.08 in Calm     91% 0.00 in BKN
18:58 65.7 °F 63.0 °F 30.08 in Calm     91% 0.00 in BKN
19:03 65.6 °F 62.9 °F 30.09 in Calm     91% 0.00 in BKN
19:08 65.5 °F 62.8 °F 30.08 in Calm     91% 0.00 in BKN
19:13 65.4 °F 62.7 °F 30.08 in Calm     91% 0.00 in BKN
19:18 65.2 °F 62.5 °F 30.08 in Calm     91% 0.00 in BKN
19:23 65.1 °F 62.4 °F 30.08 in Calm     91% 0.00 in BKN
19:28 65.1 °F 62.7 °F 30.08 in Calm     92% 0.00 in BKN
19:33 65.1 °F 62.7 °F 30.08 in Calm     92% 0.00 in BKN
19:38 65.0 °F 62.6 °F 30.08 in Calm     92% 0.00 in BKN
19:43 64.9 °F 62.5 °F 30.08 in Calm     92% 0.00 in BKN
19:48 65.0 °F 62.6 °F 30.08 in Calm     92% 0.00 in BKN
19:53 65.0 °F 62.6 °F 30.08 in Calm     92% 0.00 in BKN
19:58 64.8 °F 62.4 °F 30.08 in Calm     92% 0.00 in BKN
20:03 64.7 °F 62.3 °F 30.08 in Calm     92% 0.00 in BKN
20:08 64.6 °F 62.2 °F 30.08 in Calm     92% 0.00 in BKN
20:13 64.7 °F 62.6 °F 30.09 in Calm     93% 0.00 in BKN
20:19 64.6 °F 62.5 °F 30.08 in Calm     93% 0.00 in BKN
20:24 64.4 °F 62.0 °F 30.08 in Calm     92% 0.00 in BKN
20:29 64.2 °F 61.8 °F 30.09 in Calm     92% 0.00 in BKN
20:34 64.1 °F 61.7 °F 30.09 in Calm     92% 0.00 in BKN
20:39 64.0 °F 61.9 °F 30.09 in Calm     93% 0.00 in BKN
20:44 63.9 °F 61.8 °F 30.08 in Calm     93% 0.00 in BKN
20:49 63.7 °F 61.3 °F 30.08 in Calm     92% 0.00 in BKN
20:54 63.5 °F 61.1 °F 30.09 in Calm     92% 0.00 in BKN
20:59 63.3 °F 60.9 °F 30.08 in Calm     92% 0.00 in BKN
21:04 63.2 °F 60.8 °F 30.09 in Calm     92% 0.00 in SCT
21:09 63.1 °F 61.0 °F 30.09 in Calm     93% 0.00 in SCT
21:14 63.3 °F 61.2 °F 30.09 in Calm     93% 0.00 in SCT
21:19 63.3 °F 61.2 °F 30.09 in Calm     93% 0.00 in SCT
21:24 63.2 °F 61.1 °F 30.09 in Calm     93% 0.00 in SCT
21:29 63.1 °F 61.0 °F 30.09 in Calm     93% 0.00 in SCT
21:34 63.1 °F 61.0 °F 30.09 in Calm     93% 0.00 in SCT
21:39 63.0 °F 60.9 °F 30.09 in Calm     93% 0.00 in SCT
21:44 63.0 °F 60.9 °F 30.09 in Calm     93% 0.00 in SCT
21:49 63.0 °F 60.9 °F 30.09 in Calm     93% 0.00 in SCT
21:54 63.0 °F 60.9 °F 30.09 in Calm     93% 0.00 in SCT
21:59 63.2 °F 61.1 °F 30.09 in Calm     93% 0.00 in SCT
22:04 63.2 °F 61.1 °F 30.09 in Calm     93% 0.00 in FEW
22:09 63.3 °F 61.2 °F 30.09 in Calm     93% 0.00 in FEW
22:15 63.2 °F 61.1 °F 30.10 in Calm     93% 0.00 in FEW
22:20 63.0 °F 60.9 °F 30.10 in Calm     93% 0.00 in FEW
22:26 62.9 °F 60.8 °F 30.10 in Calm     93% 0.00 in FEW
22:31 63.0 °F 60.9 °F 30.10 in Calm     93% 0.00 in FEW
22:36 63.1 °F 61.3 °F 30.10 in Calm     94% 0.00 in FEW
22:41 63.3 °F 61.5 °F 30.10 in Calm     94% 0.00 in FEW
22:46 63.4 °F 61.6 °F 30.10 in Calm     94% 0.00 in FEW
22:56 63.8 °F 62.0 °F 30.10 in Calm     94% 0.00 in FEW
23:01 64.1 °F 62.3 °F 30.10 in Calm     94% 0.00 in SCT
23:06 64.3 °F 62.5 °F 30.09 in Calm     94% 0.00 in SCT
23:11 64.4 °F 62.6 °F 30.09 in Calm     94% 0.00 in BKN
23:16 64.5 °F 62.7 °F 30.09 in Calm     94% 0.00 in BKN
23:21 64.6 °F 62.8 °F 30.09 in Calm     94% 0.00 in BKN
23:26 64.7 °F 62.9 °F 30.09 in Calm     94% 0.00 in BKN
23:31 64.7 °F 62.9 °F 30.09 in Calm     94% 0.00 in BKN
23:36 64.7 °F 62.9 °F 30.09 in Calm     94% 0.00 in BKN
23:41 64.7 °F 62.9 °F 30.09 in Calm     94% 0.00 in BKN
23:46 64.7 °F 62.9 °F 30.09 in Calm     94% 0.00 in BKN
23:51 64.8 °F 63.0 °F 30.09 in Calm     94% 0.00 in BKN
23:56 64.8 °F 63.0 °F 30.09 in Calm     94% 0.00 in BKN
Piedmont Bend
Compliments of Weather Underground - 4 mb